Bookmark and Share
Track history (hours):
 

Npaoc Amazonas

Last reported at 2014-Feb-20 12:11 UTC. Time now 2014-Apr-20 15:58 UTC.
Position S 27°40' W 048°13'.
Warning: this ship's position is 59 days out of date.

Length 91 m; draft 4.5 m.

Type: Military. MMSI: 710493000.

NotesDate/timePositionNaut miles runAvg speedWind from/ knotsBaromVisibWave heightAir tempDewpointWater temp
2014-Feb-20 12:11S 27°40' W 048°13'4 5.7
2014-Feb-20 11:29S 27°37' W 048°15'7 6.2
2014-Feb-20 10:21S 27°30' W 048°18'2 0.2
2014-Feb-20 00:30S 27°28' W 048°18'2 1.1
2014-Feb-19 22:31S 27°28' W 048°21'0 0.2
2014-Feb-19 21:33S 27°28' W 048°21'1 0.4
2014-Feb-19 19:32S 27°27' W 048°21'0 0.2
2014-Feb-19 18:29S 27°28' W 048°21'1 0.6
2014-Feb-19 17:32S 27°27' W 048°21'3 0.9
2014-Feb-19 14:10S 27°28' W 048°18'1 1.1
2014-Feb-19 13:04S 27°28' W 048°19'0 0.4
2014-Feb-19 12:22S 27°28' W 048°19'0 0.2
2014-Feb-19 11:16S 27°29' W 048°20'0 0.6
2014-Feb-19 10:29S 27°29' W 048°19'1 0.6
2014-Feb-19 09:09S 27°29' W 048°18'2 1.3
2014-Feb-19 07:16S 27°29' W 048°16'5 6.7
2014-Feb-19 06:31S 27°29' W 048°21'2 0.6
2014-Feb-19 02:27S 27°28' W 048°19'1 0.6
2014-Feb-19 01:21S 27°29' W 048°18'1 1.7
2014-Feb-19 00:27S 27°28' W 048°17'1 0.7
2014-Feb-18 22:33S 27°29' W 048°18'1 1.2
2014-Feb-18 21:26S 27°28' W 048°20'0 0.2
2014-Feb-18 20:33S 27°29' W 048°20'1 1.2
2014-Feb-18 19:26S 27°28' W 048°18'0 0.5
2014-Feb-18 18:33S 27°28' W 048°19'2 1.8
2014-Feb-18 17:33S 27°27' W 048°20'2 2.4
2014-Feb-18 16:31S 27°29' W 048°19'2 1.8
2014-Feb-18 15:34S 27°28' W 048°20'2 1.5
2014-Feb-18 14:11S 27°29' W 048°18'2 2.4
2014-Feb-18 13:31S 27°28' W 048°19'  

Dump ship's entire track history

sailing weather and tide predictions

Npaoc Amazonas — PWAZ — position and weather